createdAt,value
2018-03-15T00:01:31.503Z,30.80
2018-03-15T00:04:00.723Z,31.40
2018-03-15T00:06:29.085Z,30.80
2018-03-15T00:08:58.123Z,30.80
2018-03-15T00:11:26.447Z,30.80
2018-03-15T00:13:55.529Z,30.80
2018-03-15T00:16:24.681Z,30.70
2018-03-15T00:18:52.984Z,30.80
2018-03-15T00:21:21.409Z,30.70
2018-03-15T00:23:49.647Z,30.80
2018-03-15T00:26:17.868Z,30.90
2018-03-15T00:28:46.088Z,30.80
2018-03-15T00:31:14.434Z,30.90
2018-03-15T00:33:42.697Z,30.80
2018-03-15T00:36:25.914Z,30.70
2018-03-15T00:38:54.315Z,30.70
2018-03-15T00:41:36.135Z,31.30
2018-03-15T00:44:04.500Z,30.70
2018-03-15T00:46:33.674Z,30.70
2018-03-15T00:55:27.061Z,30.90
2018-03-15T00:57:55.426Z,30.90
2018-03-15T01:03:40.399Z,30.80
2018-03-15T01:06:15.811Z,31.00
2018-03-15T01:08:46.412Z,31.00
2018-03-15T01:11:14.722Z,30.90
2018-03-15T01:13:43.928Z,30.80
2018-03-15T01:16:43.249Z,30.80
2018-03-15T01:19:15.689Z,30.90
2018-03-15T01:21:44.132Z,30.80
2018-03-15T01:24:33.846Z,30.90
2018-03-15T01:30:07.478Z,30.80
2018-03-15T01:36:21.271Z,30.90
2018-03-15T01:44:47.389Z,30.80
2018-03-15T01:47:31.907Z,30.80
2018-03-15T01:50:00.187Z,30.80
2018-03-15T01:52:29.239Z,30.70
2018-03-15T01:54:58.213Z,30.80
2018-03-15T01:57:34.974Z,30.80
2018-03-15T02:00:04.258Z,30.80
2018-03-15T02:05:44.752Z,30.70
2018-03-15T02:08:13.010Z,30.70
2018-03-15T02:10:41.350Z,30.70
2018-03-15T02:13:13.758Z,30.60
2018-03-15T02:15:42.722Z,30.60
2018-03-15T02:18:11.262Z,30.50
2018-03-15T02:20:39.565Z,30.50
2018-03-15T02:23:11.572Z,30.70
2018-03-15T02:25:52.338Z,30.70
2018-03-15T02:28:20.616Z,30.50
2018-03-15T02:30:48.835Z,30.50
2018-03-15T02:33:33.432Z,30.40
2018-03-15T02:36:02.611Z,30.40
2018-03-15T02:38:30.889Z,30.50
2018-03-15T02:41:27.317Z,30.40
2018-03-15T02:43:55.749Z,30.30
2018-03-15T02:46:23.938Z,30.40
2018-03-15T02:48:52.164Z,30.40
2018-03-15T02:51:40.738Z,30.30
2018-03-15T02:54:13.214Z,30.30
2018-03-15T02:56:41.634Z,30.30
2018-03-15T02:59:12.034Z,30.20
2018-03-15T03:01:46.589Z,30.30
2018-03-15T03:04:20.458Z,30.20
2018-03-15T03:06:48.837Z,30.20
2018-03-15T03:12:40.364Z,30.00
2018-03-15T03:18:32.987Z,30.00
2018-03-15T03:21:03.668Z,30.00
2018-03-15T03:23:31.951Z,30.10
2018-03-15T03:26:00.939Z,30.50
2018-03-15T03:28:30.110Z,29.90
2018-03-15T03:31:41.143Z,29.90
2018-03-15T03:34:11.160Z,29.90
2018-03-15T03:36:42.609Z,29.90
2018-03-15T03:39:10.971Z,29.90
2018-03-15T03:42:04.326Z,30.40
2018-03-15T03:44:32.670Z,30.00
2018-03-15T03:47:01.797Z,29.80
2018-03-15T03:49:30.532Z,29.80
2018-03-15T03:52:11.736Z,29.60
2018-03-15T03:54:40.808Z,29.70
2018-03-15T03:57:17.909Z,29.70
2018-03-15T04:00:01.134Z,29.60
2018-03-15T04:02:31.113Z,29.70
2018-03-15T04:04:59.432Z,29.70
2018-03-15T04:07:34.321Z,29.70
2018-03-15T04:10:06.908Z,29.60
2018-03-15T04:12:35.251Z,29.70
2018-03-15T04:15:04.231Z,29.60
2018-03-15T04:17:32.547Z,29.60
2018-03-15T04:20:00.739Z,29.60
2018-03-15T04:22:29.701Z,29.40
2018-03-15T04:24:58.779Z,29.30
2018-03-15T04:27:27.121Z,29.30
2018-03-15T04:29:55.487Z,29.30
2018-03-15T04:32:23.663Z,29.40
2018-03-15T04:34:52.748Z,29.50
2018-03-15T04:37:20.925Z,29.40
2018-03-15T04:39:49.209Z,29.50
2018-03-15T04:42:17.419Z,29.50
2018-03-15T04:44:45.587Z,29.50
2018-03-15T04:47:26.095Z,29.50
2018-03-15T04:49:54.398Z,29.40
2018-03-15T04:52:22.610Z,29.50
2018-03-15T04:54:51.599Z,29.60
2018-03-15T04:57:21.627Z,29.70
2018-03-15T04:59:49.943Z,29.70
2018-03-15T05:02:18.127Z,29.70
2018-03-15T05:04:46.807Z,29.70
2018-03-15T05:07:37.661Z,29.50
2018-03-15T05:10:05.957Z,29.50
2018-03-15T05:12:34.635Z,29.60
2018-03-15T05:15:04.974Z,29.40
2018-03-15T05:17:33.385Z,29.50
2018-03-15T05:20:02.462Z,29.40
2018-03-15T05:22:30.686Z,29.30
2018-03-15T05:24:59.679Z,29.20
2018-03-15T05:27:30.371Z,29.20
2018-03-15T05:29:59.424Z,29.20
2018-03-15T05:32:27.635Z,29.10
2018-03-15T05:38:08.557Z,29.00
2018-03-15T05:40:37.702Z,29.00
2018-03-15T05:43:05.949Z,29.00
2018-03-15T05:45:41.507Z,29.00
2018-03-15T05:48:14.731Z,28.90
2018-03-15T05:50:43.146Z,28.80
2018-03-15T05:56:18.552Z,28.90
2018-03-15T05:58:47.141Z,28.80
2018-03-15T06:01:25.595Z,28.90
2018-03-15T06:03:54.387Z,28.80
2018-03-15T06:06:22.810Z,28.80
2018-03-15T06:12:15.759Z,28.80
2018-03-15T06:14:45.238Z,29.00
2018-03-15T06:17:28.704Z,29.10
2018-03-15T06:20:05.033Z,29.10
2018-03-15T06:22:34.292Z,29.10
2018-03-15T06:25:08.755Z,29.20
2018-03-15T06:27:46.980Z,29.10
2018-03-15T06:30:15.400Z,29.10
2018-03-15T06:32:43.764Z,29.10
2018-03-15T06:35:21.384Z,28.90
2018-03-15T06:37:51.881Z,28.80
2018-03-15T06:40:20.331Z,28.60
2018-03-15T06:42:49.401Z,28.60
2018-03-15T06:52:51.037Z,28.40
2018-03-15T06:55:20.226Z,28.60
2018-03-15T06:57:54.434Z,28.60
2018-03-15T07:00:25.147Z,28.60
2018-03-15T07:02:53.335Z,28.60
2018-03-15T07:05:41.739Z,28.50
2018-03-15T07:08:17.098Z,28.50
2018-03-15T07:10:46.305Z,28.60
2018-03-15T07:22:57.584Z,28.50
2018-03-15T07:25:26.693Z,28.60
2018-03-15T07:27:54.905Z,28.60
2018-03-15T07:30:24.351Z,28.50
2018-03-15T07:32:53.200Z,28.40
2018-03-15T07:35:43.642Z,28.40
2018-03-15T07:38:12.092Z,28.40
2018-03-15T07:40:46.032Z,28.40
2018-03-15T07:57:09.140Z,28.60
2018-03-15T08:02:35.168Z,28.50
2018-03-15T08:05:03.446Z,28.50
2018-03-15T08:07:32.840Z,28.60
2018-03-15T08:10:01.090Z,28.70
2018-03-15T08:12:29.339Z,28.60
2018-03-15T08:17:37.553Z,28.70
2018-03-15T08:20:07.132Z,28.60
2018-03-15T08:22:35.539Z,28.60
2018-03-15T08:25:03.850Z,28.50
2018-03-15T08:27:36.227Z,28.60
2018-03-15T08:30:05.350Z,28.50
2018-03-15T08:32:42.318Z,28.40
2018-03-15T08:35:30.600Z,28.50
2018-03-15T08:37:59.095Z,28.50
2018-03-15T08:40:27.516Z,28.50
2018-03-15T08:43:08.348Z,28.50
2018-03-15T08:58:34.882Z,28.80
2018-03-15T09:01:05.613Z,28.70
2018-03-15T09:04:02.618Z,28.70
2018-03-15T09:06:31.088Z,28.70
2018-03-15T09:11:41.594Z,28.70
2018-03-15T09:14:10.783Z,28.80
2018-03-15T09:16:40.512Z,28.80
2018-03-15T09:19:12.547Z,28.80
2018-03-15T09:21:42.013Z,28.80
2018-03-15T09:24:10.315Z,28.80
2018-03-15T09:26:47.131Z,28.80
2018-03-15T09:29:19.064Z,28.80
2018-03-15T09:31:51.304Z,28.80
2018-03-15T09:34:19.635Z,28.80
2018-03-15T09:36:47.950Z,28.90
2018-03-15T09:39:33.549Z,28.80
2018-03-15T09:42:05.218Z,28.90
2018-03-15T09:44:33.713Z,28.90
2018-03-15T09:47:13.118Z,29.00
2018-03-15T09:49:44.765Z,29.00
2018-03-15T09:52:13.254Z,29.00
2018-03-15T10:22:46.432Z,29.20
2018-03-15T10:25:36.559Z,29.30
2018-03-15T10:34:32.764Z,29.30
2018-03-15T10:43:06.420Z,29.40
2018-03-15T10:45:34.718Z,29.30
2018-03-15T10:48:03.025Z,29.30
2018-03-15T10:50:44.623Z,29.30
2018-03-15T10:53:12.864Z,29.20
2018-03-15T10:55:52.496Z,29.20
2018-03-15T10:58:20.741Z,29.20
2018-03-15T11:01:01.599Z,29.20
2018-03-15T11:06:11.108Z,29.10
2018-03-15T11:08:39.424Z,29.10
2018-03-15T11:11:07.661Z,29.10
2018-03-15T11:13:47.300Z,29.00
2018-03-15T11:16:15.775Z,29.00
2018-03-15T11:25:23.676Z,29.00
2018-03-15T11:27:56.196Z,28.90
2018-03-15T11:30:30.102Z,29.10
2018-03-15T11:33:02.183Z,29.00
2018-03-15T11:35:44.151Z,29.10
2018-03-15T11:38:12.801Z,29.10
2018-03-15T11:43:43.464Z,29.10
2018-03-15T11:50:51.459Z,29.30
2018-03-15T11:53:28.848Z,29.40
2018-03-15T11:56:03.581Z,29.20
2018-03-15T11:58:32.879Z,29.30
2018-03-15T12:01:05.125Z,29.20
2018-03-15T12:03:45.177Z,29.20
2018-03-15T12:06:13.593Z,29.20
2018-03-15T12:08:42.183Z,29.10
2018-03-15T13:55:21.510Z,28.80
2018-03-15T15:12:25.327Z,28.50
2018-03-15T15:15:28.936Z,28.60
2018-03-15T15:17:57.340Z,28.50
2018-03-15T15:20:26.608Z,28.50
2018-03-15T15:23:03.025Z,28.50
2018-03-15T15:28:55.473Z,28.40
2018-03-15T15:31:30.447Z,28.40
2018-03-15T15:34:05.544Z,28.50
2018-03-15T15:36:34.613Z,28.40
2018-03-15T15:39:03.017Z,28.40
2018-03-15T15:41:31.383Z,28.40
2018-03-15T15:44:00.351Z,28.40
2018-03-15T15:46:31.721Z,28.40
2018-03-15T15:49:01.737Z,28.50
2018-03-15T15:51:31.141Z,28.90
2018-03-15T15:54:06.541Z,28.40
2018-03-15T15:56:35.188Z,28.40
2018-03-15T15:59:06.745Z,28.40
2018-03-15T16:30:23.701Z,28.40
2018-03-15T16:32:52.516Z,28.30
2018-03-15T16:35:22.419Z,28.30
2018-03-15T16:37:56.900Z,28.30
2018-03-15T16:40:29.498Z,28.40
2018-03-15T16:43:02.159Z,28.20
2018-03-15T16:45:32.246Z,28.40
2018-03-15T16:50:45.998Z,28.30
2018-03-15T16:53:14.850Z,28.30
2018-03-15T16:55:44.908Z,28.20
2018-03-15T16:58:13.276Z,28.20
2018-03-15T17:00:53.640Z,28.30
2018-03-15T17:03:24.175Z,28.30
2018-03-15T17:05:52.710Z,28.20
2018-03-15T17:08:20.945Z,28.30
2018-03-15T17:10:49.231Z,28.30
2018-03-15T17:13:17.507Z,28.20
2018-03-15T18:06:44.351Z,28.30
2018-03-15T18:27:17.882Z,28.40
2018-03-15T18:29:48.672Z,28.40
2018-03-15T18:32:21.733Z,28.20
2018-03-15T18:35:28.684Z,28.20
2018-03-15T18:38:01.178Z,28.20
2018-03-15T19:12:30.920Z,28.10
2018-03-15T19:15:12.965Z,28.10
2018-03-15T19:17:57.892Z,28.10
2018-03-15T20:47:35.799Z,27.50
2018-03-15T20:50:17.295Z,27.50
2018-03-15T21:19:05.836Z,27.40
2018-03-15T21:21:49.348Z,27.70
2018-03-15T21:30:07.204Z,27.70
2018-03-15T21:32:50.867Z,27.70
2018-03-15T21:35:48.368Z,27.60
2018-03-15T21:38:17.450Z,27.70
2018-03-15T21:40:45.743Z,28.20
2018-03-15T21:43:13.978Z,27.60
2018-03-15T21:45:43.054Z,27.60
2018-03-15T21:48:11.499Z,27.60
2018-03-15T21:50:39.730Z,27.60
2018-03-15T21:53:10.780Z,27.60
2018-03-15T21:58:39.003Z,27.60
2018-03-15T22:04:31.880Z,27.60
2018-03-15T22:07:05.287Z,27.70
2018-03-15T22:12:51.306Z,27.60
2018-03-15T22:15:44.218Z,27.50
2018-03-15T22:18:14.711Z,28.00
2018-03-15T22:20:44.062Z,27.50
2018-03-15T22:23:25.655Z,27.60
2018-03-15T22:26:10.217Z,27.50
2018-03-15T22:29:01.991Z,27.50
2018-03-15T22:34:27.583Z,27.50
2018-03-15T22:36:55.999Z,27.60
2018-03-15T22:39:30.725Z,27.40
2018-03-15T22:42:00.055Z,27.40
2018-03-15T22:47:32.690Z,27.50
2018-03-15T22:50:06.590Z,27.50
2018-03-15T22:52:35.040Z,27.50
2018-03-15T22:55:09.392Z,27.40
2018-03-15T23:00:38.474Z,27.40
2018-03-15T23:06:49.835Z,27.50
2018-03-15T23:09:44.069Z,27.40
2018-03-15T23:12:32.570Z,27.50
2018-03-15T23:18:20.238Z,27.80
